Time;durP1;ratioP1;P1;durP2;ratioP2;P2;SDS_P1;SDS_P2;PMS_P1;PMS_P2;Temp;Humidity;BMP_temperature;BMP_pressure;BME280_temperature;BME280_humidity;BME280_pressure;Samples;Min_cycle;Max_cycle;Signal;HPM_P1;HPM_P2
2022/12/28 00:00:08;;;;;;;6.90;2.00;;;4.40;99.90;;;;;;4996596;28;20187;-88
2022/12/28 00:02:34;;;;;;;5.53;2.00;;;4.40;99.90;;;;;;4996614;28;20261;-88
2022/12/28 00:04:59;;;;;;;6.67;2.03;;;4.40;99.90;;;;;;4996457;28;20186;-86
2022/12/28 00:07:25;;;;;;;4.37;1.73;;;4.40;99.90;;;;;;4995548;28;20504;-87
2022/12/28 00:09:51;;;;;;;6.07;2.47;;;4.40;99.90;;;;;;4996351;28;20184;-87
2022/12/28 00:12:16;;;;;;;4.57;2.23;;;4.40;99.90;;;;;;4997662;28;20258;-87
2022/12/28 00:14:42;;;;;;;6.73;1.97;;;4.40;99.90;;;;;;4996460;28;20180;-85
2022/12/28 00:17:08;;;;;;;4.77;1.90;;;4.40;99.90;;;;;;4996120;28;20180;-87
2022/12/28 00:19:33;;;;;;;4.90;1.77;;;4.40;99.90;;;;;;4996515;28;20593;-88
2022/12/28 00:21:59;;;;;;;4.33;1.93;;;4.40;99.90;;;;;;4997410;28;20211;-86
2022/12/28 00:24:26;;;;;;;8.43;2.10;;;4.40;99.90;;;;;;4997300;28;20176;-87
2022/12/28 00:26:52;;;;;;;4.70;2.50;;;4.40;99.90;;;;;;4996314;28;20207;-89
2022/12/28 00:29:18;;;;;;;8.53;2.33;;;4.40;99.90;;;;;;4995800;28;20180;-86
2022/12/28 00:31:46;;;;;;;4.63;1.67;;;4.40;99.90;;;;;;4996133;28;20184;-87
2022/12/28 00:34:13;;;;;;;7.43;2.10;;;4.40;99.90;;;;;;4997144;28;20234;-87
2022/12/28 00:36:39;;;;;;;7.00;2.30;;;4.40;99.90;;;;;;4996088;28;20241;-87
2022/12/28 00:39:05;;;;;;;4.87;1.97;;;4.40;99.90;;;;;;4996278;28;20172;-86
2022/12/28 00:41:30;;;;;;;6.60;2.00;;;4.40;99.90;;;;;;4996081;28;20777;-89
2022/12/28 00:43:56;;;;;;;6.87;2.40;;;4.40;99.90;;;;;;4995804;28;20187;-86
2022/12/28 00:46:22;;;;;;;4.83;2.00;;;4.40;99.90;;;;;;4995864;28;20260;-86
2022/12/28 00:48:47;;;;;;;4.27;1.77;;;4.50;99.90;;;;;;4997146;28;20191;-86
2022/12/28 00:51:16;;;;;;;6.53;2.50;;;4.50;99.90;;;;;;4995650;28;20274;-86
2022/12/28 00:53:43;;;;;;;8.80;2.30;;;4.50;99.90;;;;;;4994599;28;20331;-87
2022/12/28 00:56:17;;;;;;;8.00;2.27;;;4.50;99.90;;;;;;4995401;28;20234;-87
2022/12/28 00:58:44;;;;;;;4.63;2.40;;;4.50;99.90;;;;;;4995453;28;20179;-85
2022/12/28 01:01:16;;;;;;;6.50;2.83;;;4.50;99.90;;;;;;4994361;28;20529;-86
2022/12/28 01:03:42;;;;;;;13.57;3.17;;;4.60;99.90;;;;;;4995487;28;20198;-86
2022/12/28 01:06:10;;;;;;;10.37;3.53;;;4.60;99.90;;;;;;4995437;28;20627;-86
2022/12/28 01:08:37;;;;;;;11.47;3.27;;;4.50;99.90;;;;;;4995491;28;20257;-87
2022/12/28 01:11:24;;;;;;;7.87;3.07;;;4.50;99.90;;;;;;4996537;28;20227;-86
2022/12/28 01:13:52;;;;;;;8.67;2.93;;;4.40;99.90;;;;;;4994938;28;20556;-86
2022/12/28 01:16:24;;;;;;;12.37;3.73;;;4.40;99.90;;;;;;4995404;28;20232;-87
2022/12/28 01:18:53;;;;;;;5.53;2.27;;;4.50;99.90;;;;;;4995252;28;20222;-85
2022/12/28 01:21:21;;;;;;;9.13;2.60;;;4.50;99.90;;;;;;4994714;28;20179;-86
2022/12/28 01:23:48;;;;;;;4.90;2.30;;;4.50;99.90;;;;;;4994554;28;20227;-85
2022/12/28 01:26:15;;;;;;;4.13;1.90;;;4.40;99.90;;;;;;4994959;28;20267;-87
2022/12/28 01:28:41;;;;;;;7.07;2.20;;;4.40;99.90;;;;;;4996129;28;20637;-89
2022/12/28 01:31:11;;;;;;;5.30;1.77;;;4.30;99.90;;;;;;4995038;28;20175;-87
2022/12/28 01:33:37;;;;;;;8.37;2.27;;;4.30;99.90;;;;;;4994943;28;20184;-86
2022/12/28 01:36:22;;;;;;;5.80;1.87;;;4.30;99.90;;;;;;4994793;28;20176;-86
2022/12/28 01:38:55;;;;;;;4.73;1.80;;;4.40;99.90;;;;;;4994791;28;20633;-86
2022/12/28 01:41:21;;;;;;;4.20;1.40;;;4.40;99.90;;;;;;4996128;28;20251;-88
2022/12/28 01:43:53;;;;;;;6.33;1.63;;;4.40;99.90;;;;;;4994395;28;20611;-87
2022/12/28 01:46:24;;;;;;;6.43;1.57;;;4.40;99.90;;;;;;4994707;28;20172;-86
2022/12/28 01:48:59;;;;;;;3.40;1.50;;;4.40;99.90;;;;;;4994597;28;20510;-88
2022/12/28 01:51:28;;;;;;;6.33;1.90;;;4.40;99.90;;;;;;4994667;28;20621;-87
2022/12/28 01:53:55;;;;;;;3.50;1.90;;;4.40;99.90;;;;;;4994428;28;20771;-84
2022/12/28 01:56:26;;;;;;;7.47;1.73;;;4.40;99.90;;;;;;4995890;28;20180;-88
2022/12/28 01:58:53;;;;;;;4.40;1.77;;;4.50;99.90;;;;;;4993992;28;20171;-85
2022/12/28 02:01:19;;;;;;;4.57;1.43;;;4.40;99.90;;;;;;4994431;28;20180;-87
2022/12/28 02:03:45;;;;;;;6.83;2.30;;;4.40;99.90;;;;;;4995359;28;20172;-88
2022/12/28 02:06:12;;;;;;;3.37;1.40;;;4.40;99.90;;;;;;4994231;28;20257;-88
2022/12/28 02:08:45;;;;;;;6.23;1.80;;;4.50;99.90;;;;;;4995651;28;20172;-86
2022/12/28 02:11:14;;;;;;;2.90;1.43;;;4.50;99.90;;;;;;4994329;28;20176;-87
2022/12/28 02:13:44;;;;;;;8.03;1.73;;;4.50;99.90;;;;;;4993878;28;20187;-86
2022/12/28 02:16:10;;;;;;;5.13;1.90;;;4.50;99.90;;;;;;4994146;28;20238;-85
2022/12/28 02:18:37;;;;;;;2.60;1.00;;;4.50;99.90;;;;;;4994096;28;20227;-85
2022/12/28 02:21:09;;;;;;;5.13;1.87;;;4.60;99.90;;;;;;4994224;28;20230;-86
2022/12/28 02:23:58;;;;;;;4.10;1.23;;;4.50;99.90;;;;;;4994155;28;20230;-87
2022/12/28 02:26:40;;;;;;;3.83;1.53;;;4.50;99.90;;;;;;4995149;28;20172;-88
2022/12/28 02:29:54;;;;;;;6.50;1.70;;;4.50;99.90;;;;;;4993682;28;20180;-85
2022/12/28 02:32:22;;;;;;;4.73;1.27;;;4.50;99.90;;;;;;4986514;28;20314;-85
2022/12/28 02:34:59;;;;;;;6.40;1.77;;;4.60;99.90;;;;;;4995177;28;20183;-87
2022/12/28 02:37:50;;;;;;;3.90;1.47;;;4.60;99.90;;;;;;4993840;28;20179;-88
2022/12/28 02:41:05;;;;;;;3.63;1.37;;;4.60;99.90;;;;;;4994154;28;20180;-87
2022/12/28 02:43:32;;;;;;;4.30;1.50;;;4.60;99.90;;;;;;4992484;28;20208;-86
2022/12/28 02:52:06;;;;;;;7.90;1.83;;;4.60;99.90;;;;;;4995213;28;20178;-86
2022/12/28 02:57:47;;;;;;;4.90;1.50;;;4.70;99.90;;;;;;4994826;28;20512;-88
2022/12/28 03:00:19;;;;;;;6.03;1.60;;;4.70;99.90;;;;;;4993933;28;20164;-88
2022/12/28 03:03:26;;;;;;;9.00;1.77;;;4.70;99.90;;;;;;4993583;28;20319;-86
2022/12/28 03:09:18;;;;;;;1.77;1.30;;;4.70;99.90;;;;;;4994666;28;20195;-85
2022/12/28 03:12:03;;;;;;;4.80;1.60;;;4.80;99.90;;;;;;4994746;28;20180;-85
2022/12/28 03:14:46;;;;;;;10.47;1.87;;;4.80;99.90;;;;;;4993376;28;20196;-85
2022/12/28 03:31:23;;;;;;;8.03;2.23;;;4.90;99.90;;;;;;4998726;28;20167;-87
2022/12/28 03:33:52;;;;;;;4.63;1.70;;;4.90;99.90;;;;;;4998492;28;20187;-85
2022/12/28 03:36:40;;;;;;;11.33;2.23;;;4.90;99.90;;;;;;4996918;28;20180;-84
2022/12/28 03:39:43;;;;;;;8.70;1.90;;;4.90;99.90;;;;;;4997243;28;20187;-85
2022/12/28 03:45:23;;;;;;;7.27;1.80;;;5.10;99.90;;;;;;4998545;28;20261;-88
2022/12/28 03:47:50;;;;;;;4.27;1.60;;;5.10;99.90;;;;;;4996856;28;20180;-85
2022/12/28 03:50:18;;;;;;;6.57;2.40;;;5.10;99.90;;;;;;4997135;28;20180;-86
2022/12/28 03:52:43;;;;;;;5.30;2.10;;;5.10;99.90;;;;;;4998924;28;20180;-85
2022/12/28 03:55:13;;;;;;;7.10;2.60;;;5.10;99.90;;;;;;4999948;28;20688;-86
2022/12/28 03:57:39;;;;;;;6.97;2.07;;;5.10;99.90;;;;;;5013820;28;20203;-86
2022/12/28 04:00:08;;;;;;;6.50;2.00;;;5.10;99.90;;;;;;5017361;28;20183;-85
2022/12/28 04:02:34;;;;;;;8.17;2.20;;;5.10;99.90;;;;;;5000133;28;20222;-89
2022/12/28 04:04:59;;;;;;;8.17;2.17;;;5.00;99.90;;;;;;5017262;28;20583;-87
2022/12/28 04:07:26;;;;;;;5.43;2.20;;;5.00;99.90;;;;;;4999548;28;20227;-84
2022/12/28 04:09:52;;;;;;;8.10;2.00;;;5.00;99.90;;;;;;4999620;28;20171;-90
2022/12/28 04:12:18;;;;;;;4.37;1.90;;;5.00;99.90;;;;;;4999231;28;20245;-84
2022/12/28 04:14:43;;;;;;;7.10;2.00;;;5.00;99.90;;;;;;4999161;28;20640;-87
2022/12/28 04:17:09;;;;;;;7.70;2.37;;;5.00;99.90;;;;;;5017223;28;20206;-85
2022/12/28 04:19:35;;;;;;;6.30;2.00;;;5.10;99.90;;;;;;4999463;28;20180;-87
2022/12/28 04:22:00;;;;;;;8.27;2.50;;;5.10;99.90;;;;;;4999660;28;20551;-85
2022/12/28 04:24:26;;;;;;;5.93;2.13;;;5.00;99.90;;;;;;4999104;28;20187;-89
2022/12/28 04:26:53;;;;;;;5.37;2.00;;;5.00;99.90;;;;;;4999169;28;20187;-86
2022/12/28 04:29:18;;;;;;;5.23;2.07;;;5.00;99.90;;;;;;5016607;28;20195;-85
2022/12/28 04:31:44;;;;;;;8.67;2.23;;;5.00;99.90;;;;;;4999392;28;20519;-87
2022/12/28 04:34:10;;;;;;;8.60;2.57;;;5.10;99.90;;;;;;4999041;28;20681;-84
2022/12/28 04:36:37;;;;;;;4.37;2.17;;;5.00;99.90;;;;;;4998998;28;20197;-86
2022/12/28 04:39:02;;;;;;;8.07;2.27;;;5.00;99.90;;;;;;4999207;28;20222;-85
2022/12/28 04:41:28;;;;;;;5.97;2.73;;;5.10;99.90;;;;;;5016546;28;20183;-83
2022/12/28 04:43:54;;;;;;;5.53;2.60;;;5.10;99.90;;;;;;4998903;28;20539;-82
2022/12/28 04:46:22;;;;;;;7.27;2.10;;;5.10;99.90;;;;;;4998894;28;20238;-86
2022/12/28 04:48:48;;;;;;;6.70;2.37;;;5.10;99.90;;;;;;4998842;28;20179;-85
2022/12/28 04:51:20;;;;;;;6.27;2.33;;;5.10;99.90;;;;;;5016270;28;20187;-86
2022/12/28 04:53:46;;;;;;;5.00;2.10;;;5.10;99.90;;;;;;5015961;28;20234;-83
2022/12/28 04:56:12;;;;;;;8.00;2.33;;;5.10;99.90;;;;;;5016294;28;20263;-87
2022/12/28 04:58:38;;;;;;;5.13;2.10;;;5.00;99.90;;;;;;4998410;28;20218;-84
2022/12/28 05:01:05;;;;;;;6.03;2.10;;;5.00;99.90;;;;;;4998623;28;20221;-85
2022/12/28 05:03:31;;;;;;;3.97;2.07;;;5.00;99.90;;;;;;4998433;28;20207;-83
2022/12/28 05:06:06;;;;;;;5.13;2.00;;;5.10;99.90;;;;;;4998507;28;20529;-85
2022/12/28 05:08:36;;;;;;;7.93;2.23;;;5.00;99.90;;;;;;5015905;28;20179;-84
2022/12/28 05:11:04;;;;;;;5.37;1.90;;;5.00;99.90;;;;;;5015823;28;20180;-86
2022/12/28 05:13:31;;;;;;;7.43;2.80;;;5.00;99.90;;;;;;4997878;28;20183;-86
2022/12/28 05:16:01;;;;;;;5.87;2.27;;;5.10;99.90;;;;;;4998443;28;20187;-86
2022/12/28 05:18:30;;;;;;;3.73;1.80;;;5.20;99.90;;;;;;5015904;28;20524;-86
2022/12/28 05:21:07;;;;;;;4.90;2.23;;;5.10;99.90;;;;;;4998317;28;20171;-86
2022/12/28 05:23:36;;;;;;;5.47;2.00;;;5.10;99.90;;;;;;5015719;28;20250;-86
2022/12/28 05:26:02;;;;;;;4.50;1.83;;;5.10;99.90;;;;;;4998133;28;20198;-87
2022/12/28 05:28:28;;;;;;;9.63;2.33;;;5.10;99.90;;;;;;4997927;28;20214;-84
2022/12/28 05:30:58;;;;;;;6.97;1.93;;;5.10;99.90;;;;;;4998302;28;20268;-84
2022/12/28 05:33:24;;;;;;;7.07;2.30;;;5.10;99.90;;;;;;4998014;28;20214;-86
2022/12/28 05:35:50;;;;;;;7.53;2.30;;;5.10;99.90;;;;;;4997938;28;20622;-84
2022/12/28 05:38:15;;;;;;;5.90;2.00;;;5.10;99.90;;;;;;4997717;28;20184;-85
2022/12/28 05:40:41;;;;;;;5.27;2.27;;;5.10;99.90;;;;;;4978103;28;20493;-83
2022/12/28 05:43:06;;;;;;;5.60;1.90;;;5.20;99.90;;;;;;4978246;28;20234;-86
2022/12/28 05:45:32;;;;;;;6.43;1.80;;;5.20;99.90;;;;;;4978637;28;20270;-86
2022/12/28 05:47:59;;;;;;;3.10;1.90;;;5.20;99.90;;;;;;4978324;28;20206;-86
2022/12/28 05:50:24;;;;;;;2.97;1.87;;;5.30;99.90;;;;;;4978536;28;20188;-86
2022/12/28 05:52:50;;;;;;;6.80;2.27;;;5.40;99.90;;;;;;4995392;28;20227;-86
2022/12/28 05:55:16;;;;;;;7.50;1.90;;;5.40;99.90;;;;;;4995771;28;20523;-86
2022/12/28 05:57:41;;;;;;;5.83;2.23;;;5.40;99.90;;;;;;4980607;28;20189;-85
2022/12/28 06:00:08;;;;;;;3.60;2.07;;;5.40;99.90;;;;;;4997907;28;20179;-86
2022/12/28 06:02:33;;;;;;;5.80;1.70;;;5.40;99.90;;;;;;5015055;28;20260;-86
2022/12/28 06:04:59;;;;;;;5.73;1.90;;;5.40;99.90;;;;;;5015143;28;20513;-85
2022/12/28 06:07:25;;;;;;;4.97;2.20;;;5.50;99.90;;;;;;4997422;28;20175;-85
2022/12/28 06:09:50;;;;;;;7.43;2.60;;;5.50;99.90;;;;;;4997537;28;20190;-86
2022/12/28 06:12:16;;;;;;;4.87;2.20;;;5.50;99.90;;;;;;5013908;28;20221;-83
2022/12/28 06:14:42;;;;;;;4.57;2.00;;;5.50;99.90;;;;;;5014952;28;20503;-85
2022/12/28 06:17:07;;;;;;;3.70;2.20;;;5.50;99.90;;;;;;4997341;28;20233;-84
2022/12/28 06:19:33;;;;;;;5.13;1.60;;;5.60;99.90;;;;;;4997280;28;20785;-85
2022/12/28 06:21:59;;;;;;;4.90;2.30;;;5.60;99.90;;;;;;5014832;28;20210;-87
2022/12/28 06:24:24;;;;;;;4.47;2.13;;;5.60;99.90;;;;;;4997223;28;20190;-85
2022/12/28 06:26:50;;;;;;;5.83;3.50;;;5.60;99.90;;;;;;5014717;28;20198;-87
2022/12/28 06:29:16;;;;;;;6.17;2.50;;;5.60;99.90;;;;;;4997393;28;20172;-86
2022/12/28 06:31:46;;;;;;;4.70;2.20;;;5.70;99.90;;;;;;5014733;28;20519;-87
2022/12/28 06:34:12;;;;;;;8.70;2.50;;;5.70;99.90;;;;;;4996393;28;20524;-86
2022/12/28 06:36:41;;;;;;;3.13;2.27;;;5.70;99.90;;;;;;5014686;28;20171;-85
2022/12/28 06:39:09;;;;;;;4.37;2.60;;;5.80;99.90;;;;;;4997207;28;20513;-86
2022/12/28 06:41:35;;;;;;;6.03;2.07;;;5.80;99.90;;;;;;4996888;28;20555;-86
2022/12/28 06:44:05;;;;;;;4.90;2.00;;;5.80;99.90;;;;;;5014482;28;20175;-87
2022/12/28 06:46:31;;;;;;;5.30;1.90;;;5.80;99.90;;;;;;4996859;28;20508;-87
2022/12/28 06:48:57;;;;;;;2.63;2.00;;;5.80;99.90;;;;;;5014622;28;20201;-85
2022/12/28 06:51:25;;;;;;;4.67;2.10;;;5.80;99.90;;;;;;5014708;28;20171;-85
2022/12/28 06:53:52;;;;;;;5.37;2.20;;;5.80;99.90;;;;;;5017884;28;20283;-86
2022/12/28 06:56:21;;;;;;;5.13;1.90;;;5.80;99.90;;;;;;5000913;28;20225;-86
2022/12/28 06:58:48;;;;;;;5.50;2.57;;;5.90;99.90;;;;;;5018376;28;20264;-86
2022/12/28 07:01:16;;;;;;;5.03;2.17;;;5.90;99.90;;;;;;5018416;28;20167;-85
2022/12/28 07:03:43;;;;;;;4.37;2.33;;;5.90;99.90;;;;;;5001123;28;20230;-86
2022/12/28 07:06:10;;;;;;;6.73;2.10;;;5.90;99.90;;;;;;5001003;28;20198;-87
2022/12/28 07:08:37;;;;;;;4.20;2.40;;;5.90;99.90;;;;;;5000874;28;20183;-85
2022/12/28 07:11:08;;;;;;;3.97;2.40;;;5.80;99.90;;;;;;5018335;28;20164;-88
2022/12/28 07:13:34;;;;;;;6.33;2.53;;;5.80;99.90;;;;;;5000535;28;20202;-86
2022/12/28 07:16:02;;;;;;;5.23;2.33;;;5.80;99.90;;;;;;5000673;28;20175;-86
2022/12/28 07:18:28;;;;;;;5.23;2.67;;;5.80;99.90;;;;;;5000754;28;20175;-88
2022/12/28 07:21:03;;;;;;;9.17;2.70;;;5.80;99.90;;;;;;5000814;28;20586;-86
2022/12/28 07:23:30;;;;;;;4.83;2.37;;;5.90;99.90;;;;;;4999888;28;20265;-87
2022/12/28 07:25:57;;;;;;;4.30;2.40;;;5.90;99.90;;;;;;5000621;28;20198;-88
2022/12/28 07:28:24;;;;;;;3.60;1.90;;;6.00;99.90;;;;;;5000668;28;20179;-87
2022/12/28 07:30:49;;;;;;;4.03;2.30;;;6.00;99.90;;;;;;5010932;28;20184;-86
2022/12/28 07:33:15;;;;;;;6.10;2.33;;;6.00;99.90;;;;;;4981248;28;20182;-87
2022/12/28 07:35:41;;;;;;;4.00;2.50;;;6.00;99.90;;;;;;4989725;28;20187;-85
2022/12/28 07:38:06;;;;;;;4.03;2.40;;;6.00;99.90;;;;;;5000701;28;20266;-87
2022/12/28 07:40:32;;;;;;;3.90;2.70;;;6.00;99.90;;;;;;4999910;28;20182;-86
2022/12/28 07:43:01;;;;;;;3.70;2.47;;;6.00;99.90;;;;;;4999980;28;20258;-88
2022/12/28 07:45:26;;;;;;;5.77;2.77;;;6.00;99.90;;;;;;5000567;28;20548;-85
2022/12/28 07:47:52;;;;;;;4.60;2.73;;;6.00;99.90;;;;;;5018027;28;20176;-88
2022/12/28 07:50:17;;;;;;;4.20;2.50;;;6.00;99.90;;;;;;5000640;28;20179;-87
2022/12/28 07:52:43;;;;;;;5.87;2.73;;;6.00;99.90;;;;;;5000222;28;20688;-86
2022/12/28 07:55:09;;;;;;;3.87;2.77;;;6.10;99.90;;;;;;4999608;28;20561;-87
2022/12/28 07:57:35;;;;;;;7.07;2.80;;;6.00;99.90;;;;;;5017270;28;20530;-86
2022/12/28 08:00:01;;;;;;;3.80;2.93;;;6.00;99.90;;;;;;4999918;28;20502;-84
2022/12/28 08:02:26;;;;;;;4.33;3.00;;;5.90;99.90;;;;;;4999919;28;20265;-84
2022/12/28 08:04:52;;;;;;;5.53;2.80;;;5.90;99.90;;;;;;5016709;28;20191;-85
2022/12/28 08:07:18;;;;;;;6.83;3.13;;;5.90;99.90;;;;;;4999702;28;20186;-85
2022/12/28 08:09:44;;;;;;;6.33;3.20;;;5.90;99.90;;;;;;4999699;28;20597;-90
2022/12/28 08:12:09;;;;;;;5.20;3.20;;;6.00;99.90;;;;;;5000247;28;20223;-85
2022/12/28 08:14:35;;;;;;;5.57;2.87;;;6.00;99.90;;;;;;4999871;28;20184;-86
2022/12/28 08:17:01;;;;;;;6.00;2.93;;;6.10;99.90;;;;;;5017372;28;20677;-84
2022/12/28 08:19:26;;;;;;;4.77;3.00;;;6.10;99.90;;;;;;5000127;28;20233;-85
2022/12/28 08:21:52;;;;;;;2.90;2.60;;;6.10;99.90;;;;;;4999112;28;20214;-90
2022/12/28 08:24:19;;;;;;;5.37;2.53;;;6.10;99.90;;;;;;4999411;28;20183;-85
2022/12/28 08:26:46;;;;;;;5.00;2.83;;;6.10;99.90;;;;;;5016578;28;20175;-85
2022/12/28 08:29:16;;;;;;;4.37;2.63;;;6.20;99.90;;;;;;4999852;28;20277;-86
2022/12/28 08:31:43;;;;;;;6.23;2.50;;;6.30;99.90;;;;;;4999599;28;20501;-84
2022/12/28 08:34:14;;;;;;;5.87;2.60;;;6.20;99.90;;;;;;5017150;28;20273;-92
2022/12/28 08:36:40;;;;;;;3.53;2.43;;;6.30;99.90;;;;;;4999173;28;20533;-88
2022/12/28 08:39:06;;;;;;;4.77;2.83;;;6.30;99.90;;;;;;4999390;28;20183;-91
2022/12/28 08:41:32;;;;;;;6.80;3.00;;;6.30;99.90;;;;;;4999213;28;20175;-87
2022/12/28 08:43:58;;;;;;;5.97;2.73;;;6.30;99.90;;;;;;4999587;28;20183;-84
2022/12/28 08:46:32;;;;;;;4.47;2.90;;;6.40;99.90;;;;;;4999898;28;20218;-85
2022/12/28 08:48:59;;;;;;;6.40;2.30;;;6.40;99.90;;;;;;4999781;28;20247;-87
2022/12/28 08:51:35;;;;;;;3.40;2.53;;;6.40;99.90;;;;;;4999796;28;20178;-84
2022/12/28 08:54:01;;;;;;;5.20;2.80;;;6.40;99.90;;;;;;4995138;28;20242;-90
2022/12/28 08:56:30;;;;;;;4.47;2.60;;;6.40;99.90;;;;;;4995226;28;20194;-86
2022/12/28 08:58:58;;;;;;;7.07;3.00;;;6.40;99.90;;;;;;4994347;28;20267;-86
2022/12/28 09:01:29;;;;;;;3.90;2.70;;;6.40;99.90;;;;;;4996880;28;20179;-84
2022/12/28 09:03:56;;;;;;;4.67;2.70;;;6.40;99.90;;;;;;4995815;28;20192;-84
2022/12/28 09:06:25;;;;;;;3.23;2.73;;;6.50;99.90;;;;;;4995877;28;20185;-84
2022/12/28 09:08:56;;;;;;;3.97;2.57;;;6.50;99.90;;;;;;4996120;28;20242;-86
2022/12/28 09:11:22;;;;;;;3.43;2.30;;;6.50;99.90;;;;;;4995551;28;20199;-86
2022/12/28 09:13:48;;;;;;;3.83;2.60;;;6.50;99.90;;;;;;4995613;28;20225;-87
2022/12/28 09:16:19;;;;;;;5.57;2.60;;;6.60;99.90;;;;;;4995274;28;20619;-91
2022/12/28 09:18:47;;;;;;;5.20;2.50;;;6.60;99.90;;;;;;4996024;28;20258;-88
2022/12/28 09:21:19;;;;;;;3.73;2.47;;;6.60;99.90;;;;;;4996146;28;20270;-86
2022/12/28 09:23:45;;;;;;;3.53;2.60;;;6.60;99.90;;;;;;4995693;28;20306;-87
2022/12/28 09:26:14;;;;;;;5.03;2.67;;;6.70;99.90;;;;;;4994977;28;20179;-87
2022/12/28 09:28:54;;;;;;;4.27;2.60;;;6.70;99.90;;;;;;4995215;28;20176;-84
2022/12/28 09:31:22;;;;;;;4.00;2.40;;;6.70;99.90;;;;;;4996640;28;20168;-86
2022/12/28 09:34:00;;;;;;;5.00;2.37;;;6.70;99.90;;;;;;4995630;28;20215;-86
2022/12/28 09:36:25;;;;;;;4.50;2.80;;;6.80;99.90;;;;;;4979281;28;20179;-86
2022/12/28 09:38:52;;;;;;;6.47;2.43;;;6.80;99.90;;;;;;4987349;28;20898;-91
2022/12/28 09:41:26;;;;;;;3.23;2.50;;;6.80;99.90;;;;;;4993066;28;20215;-87
2022/12/28 09:44:03;;;;;;;3.87;2.63;;;6.80;99.90;;;;;;4993155;28;20190;-86
2022/12/28 09:46:33;;;;;;;3.90;2.43;;;6.80;99.90;;;;;;4976124;28;20263;-85
2022/12/28 09:49:05;;;;;;;4.97;2.60;;;6.90;99.90;;;;;;4995021;28;20548;-93
2022/12/28 09:51:36;;;;;;;2.90;2.23;;;6.90;99.90;;;;;;4997218;28;20226;-89
2022/12/28 09:54:03;;;;;;;4.30;2.30;;;6.90;99.90;;;;;;4994880;28;20235;-89
2022/12/28 09:56:39;;;;;;;2.93;2.20;;;6.90;99.90;;;;;;4994858;28;20207;-88
2022/12/28 09:59:13;;;;;;;5.03;2.93;;;6.90;99.90;;;;;;4995162;28;20172;-87
2022/12/28 10:01:41;;;;;;;4.47;2.43;;;6.90;99.90;;;;;;4994532;28;20184;-92
2022/12/28 10:04:10;;;;;;;3.50;2.33;;;7.00;99.90;;;;;;4995453;28;20215;-86
2022/12/28 10:06:36;;;;;;;3.10;2.10;;;7.00;99.90;;;;;;4995410;28;20682;-86
2022/12/28 10:09:11;;;;;;;6.87;3.10;;;7.00;99.90;;;;;;4995051;28;20238;-88
2022/12/28 10:11:42;;;;;;;3.30;2.53;;;7.00;99.90;;;;;;4994782;28;20172;-86
2022/12/28 10:14:34;;;;;;;4.67;2.50;;;7.00;99.90;;;;;;4994933;28;20179;-88
2022/12/28 10:17:00;;;;;;;3.27;2.27;;;7.10;99.90;;;;;;4985840;28;20198;-84
2022/12/28 10:19:28;;;;;;;6.70;2.50;;;7.20;99.90;;;;;;4994408;28;20176;-83
2022/12/28 10:22:03;;;;;;;4.00;2.50;;;7.30;99.90;;;;;;4994367;28;20224;-90
2022/12/28 10:24:30;;;;;;;3.37;2.13;;;7.30;99.90;;;;;;4994577;28;20179;-85
2022/12/28 10:27:04;;;;;;;2.60;2.10;;;7.20;99.90;;;;;;4993980;28;20619;-91
2022/12/28 10:29:31;;;;;;;3.97;2.60;;;7.30;99.90;;;;;;4995946;28;20623;-88
2022/12/28 10:32:08;;;;;;;5.37;2.23;;;7.40;99.90;;;;;;4994660;28;20195;-92
2022/12/28 10:34:35;;;;;;;3.17;2.23;;;7.40;99.90;;;;;;4994674;28;20820;-85
2022/12/28 10:37:15;;;;;;;4.00;2.37;;;7.40;99.90;;;;;;4994370;28;20279;-91
2022/12/28 10:39:57;;;;;;;4.43;2.40;;;7.50;99.90;;;;;;4994316;28;20176;-84
2022/12/28 10:42:27;;;;;;;4.47;2.50;;;7.50;99.90;;;;;;4994402;28;20272;-88
2022/12/28 10:45:00;;;;;;;4.17;2.67;;;7.50;99.90;;;;;;4995035;28;20168;-89
2022/12/28 10:47:40;;;;;;;2.37;2.07;;;7.50;99.90;;;;;;4995420;28;20603;-85
2022/12/28 10:50:06;;;;;;;5.97;2.40;;;7.50;99.90;;;;;;4993473;28;20175;-85
2022/12/28 10:52:32;;;;;;;5.50;4.10;;;7.60;99.90;;;;;;4995088;28;20180;-86
2022/12/28 10:54:58;;;;;;;3.17;2.07;;;7.60;99.90;;;;;;4997748;28;20318;-86
2022/12/28 10:57:26;;;;;;;3.23;2.40;;;7.60;99.90;;;;;;4997916;28;20372;-88
2022/12/28 10:59:52;;;;;;;3.00;2.23;;;7.60;99.90;;;;;;4997851;28;20186;-90
2022/12/28 11:02:29;;;;;;;4.77;2.43;;;7.60;99.90;;;;;;5015029;28;20210;-86
2022/12/28 11:05:00;;;;;;;2.80;2.20;;;7.70;99.90;;;;;;4997378;28;20304;-86
2022/12/28 11:07:33;;;;;;;3.10;2.13;;;7.70;99.90;;;;;;5014937;28;20626;-89
2022/12/28 11:10:26;;;;;;;4.00;2.57;;;7.70;99.90;;;;;;4997913;28;20175;-90
2022/12/28 11:12:54;;;;;;;3.00;2.43;;;7.80;99.90;;;;;;4997400;28;20171;-92
2022/12/28 11:15:24;;;;;;;3.30;2.30;;;7.80;99.90;;;;;;4997313;28;20210;-90
2022/12/28 11:17:57;;;;;;;2.83;1.97;;;7.70;99.90;;;;;;4997714;28;20250;-90
2022/12/28 11:20:33;;;;;;;5.40;1.70;;;7.80;99.90;;;;;;4997091;28;20183;-90
2022/12/28 11:22:59;;;;;;;4.83;2.07;;;7.80;99.90;;;;;;4997121;28;20237;-85
2022/12/28 11:25:32;;;;;;;2.53;2.20;;;7.80;99.90;;;;;;4996731;28;20225;-87
2022/12/28 11:27:58;;;;;;;1.97;1.70;;;7.80;99.90;;;;;;4997517;28;20306;-90
2022/12/28 11:30:24;;;;;;;3.30;1.80;;;7.80;99.90;;;;;;5015208;28;20219;-89
2022/12/28 11:32:57;;;;;;;3.27;2.03;;;7.80;99.90;;;;;;4997261;28;20190;-91
2022/12/28 11:35:35;;;;;;;4.37;1.93;;;7.80;99.90;;;;;;4997038;28;20182;-87
2022/12/28 11:38:03;;;;;;;5.17;2.17;;;7.80;99.90;;;;;;4996716;28;20179;-85
2022/12/28 11:40:49;;;;;;;2.80;1.70;;;7.80;99.90;;;;;;5000709;28;20171;-88
2022/12/28 11:43:38;;;;;;;3.33;1.80;;;7.80;99.90;;;;;;5000995;28;20353;-89
2022/12/28 11:46:06;;;;;;;5.53;2.17;;;7.90;99.90;;;;;;5018137;28;20186;-89
2022/12/28 11:48:41;;;;;;;5.17;1.90;;;7.80;99.90;;;;;;5000865;28;20626;-87
2022/12/28 11:51:36;;;;;;;3.00;1.90;;;7.80;99.90;;;;;;5000413;28;20257;-86
2022/12/28 11:54:23;;;;;;;3.37;2.13;;;7.90;99.90;;;;;;4997867;28;20227;-94
2022/12/28 11:56:52;;;;;;;4.50;1.60;;;8.00;99.90;;;;;;4992905;28;20625;-85
2022/12/28 11:59:23;;;;;;;3.00;1.67;;;8.10;99.90;;;;;;5017216;28;20183;-86
2022/12/28 12:01:51;;;;;;;2.10;1.47;;;8.10;99.90;;;;;;5000725;28;20203;-85
2022/12/28 12:04:28;;;;;;;3.93;1.90;;;8.00;99.90;;;;;;5000486;28;20179;-86
2022/12/28 12:06:55;;;;;;;3.10;1.70;;;8.00;99.90;;;;;;5000508;28;20171;-86
2022/12/28 12:09:24;;;;;;;4.73;1.80;;;8.00;99.90;;;;;;5000142;28;20202;-89
2022/12/28 12:11:49;;;;;;;4.00;1.90;;;8.00;99.90;;;;;;4998905;28;20180;-87
2022/12/28 12:14:23;;;;;;;4.07;1.50;;;8.00;99.90;;;;;;5017514;28;20167;-89
2022/12/28 12:17:02;;;;;;;3.60;1.83;;;8.10;99.90;;;;;;5017648;28;20269;-86
2022/12/28 12:19:32;;;;;;;2.50;1.53;;;8.20;99.90;;;;;;5000145;28;20637;-88
2022/12/28 12:22:05;;;;;;;4.40;1.40;;;8.20;99.90;;;;;;4999899;28;20716;-88
2022/12/28 12:24:48;;;;;;;2.20;1.37;;;8.10;99.90;;;;;;5000149;28;20183;-88
2022/12/28 12:27:32;;;;;;;3.60;1.50;;;8.10;99.90;;;;;;4999726;28;20187;-89
2022/12/28 12:30:06;;;;;;;3.60;1.60;;;8.20;99.90;;;;;;5017208;28;20175;-88
2022/12/28 12:32:44;;;;;;;4.17;1.40;;;8.10;99.90;;;;;;5016632;28;20310;-88
2022/12/28 12:35:16;;;;;;;2.77;1.60;;;8.10;99.90;;;;;;4999621;28;20179;-87
2022/12/28 12:37:49;;;;;;;5.10;1.77;;;8.10;99.90;;;;;;4999542;28;20221;-87
2022/12/28 12:40:27;;;;;;;2.03;1.50;;;8.10;99.90;;;;;;5016982;28;20540;-89
2022/12/28 12:43:24;;;;;;;2.27;1.43;;;8.10;99.90;;;;;;4998964;28;20207;-88
2022/12/28 12:46:27;;;;;;;4.17;1.67;;;8.10;99.90;;;;;;4998887;28;20222;-87
2022/12/28 12:49:11;;;;;;;2.53;1.37;;;8.10;99.90;;;;;;4999289;28;20633;-86
2022/12/28 12:52:03;;;;;;;1.57;1.37;;;8.10;99.90;;;;;;5012998;28;20160;-87
2022/12/28 12:54:59;;;;;;;3.37;1.33;;;8.10;99.90;;;;;;4999345;28;20412;-88
2022/12/28 12:57:48;;;;;;;2.30;1.60;;;8.10;99.90;;;;;;4996947;28;20175;-88
2022/12/28 13:00:16;;;;;;;2.00;1.70;;;8.10;99.90;;;;;;4980273;28;20191;-87
2022/12/28 13:02:41;;;;;;;3.23;1.70;;;7.90;99.90;;;;;;4997401;28;20222;-87
2022/12/28 13:05:16;;;;;;;3.60;1.80;;;8.00;99.90;;;;;;4998402;28;20187;-90
2022/12/28 13:07:41;;;;;;;2.87;1.60;;;8.00;99.90;;;;;;5015980;28;20598;-86
2022/12/28 13:10:21;;;;;;;3.17;1.50;;;7.90;99.90;;;;;;4998473;28;20191;-87
2022/12/28 13:12:47;;;;;;;2.40;1.70;;;8.00;99.90;;;;;;5015781;28;20254;-87
2022/12/28 13:15:16;;;;;;;3.63;1.87;;;7.90;99.90;;;;;;4999086;28;20730;-86
2022/12/28 13:18:05;;;;;;;2.53;1.63;;;7.90;99.90;;;;;;4998898;28;20195;-90
2022/12/28 13:20:32;;;;;;;2.80;1.70;;;8.00;99.90;;;;;;4983462;28;20192;-88
2022/12/28 13:22:58;;;;;;;1.80;1.50;;;8.00;99.90;;;;;;4978700;28;20222;-89
2022/12/28 13:25:32;;;;;;;2.63;1.73;;;8.00;99.90;;;;;;4978523;28;20176;-87
2022/12/28 13:28:01;;;;;;;3.43;1.77;;;7.90;99.90;;;;;;4978818;28;20172;-84
2022/12/28 13:30:27;;;;;;;3.40;1.77;;;7.90;99.90;;;;;;4996366;28;20179;-87
2022/12/28 13:32:57;;;;;;;3.37;1.73;;;8.00;99.90;;;;;;5006343;28;20211;-90
2022/12/28 13:35:29;;;;;;;7.80;1.93;;;8.00;99.90;;;;;;4998290;28;20171;-85
2022/12/28 13:38:11;;;;;;;2.97;1.70;;;8.00;99.90;;;;;;4998183;28;20689;-89
2022/12/28 13:40:39;;;;;;;3.87;1.80;;;7.90;99.90;;;;;;5015667;28;20171;-87
2022/12/28 13:43:42;;;;;;;3.20;1.83;;;7.90;99.90;;;;;;5015263;28;20219;-85